createdAt,value
2023-10-11T00:01:43.762Z,101310.06
2023-10-11T00:04:24.995Z,101320.06
2023-10-11T00:06:51.948Z,101323.81
2023-10-11T00:09:18.858Z,101306.69
2023-10-11T00:11:46.378Z,101319.22
2023-10-11T00:14:14.880Z,101327.22
2023-10-11T00:16:41.420Z,101303.75
2023-10-11T00:19:11.336Z,101314.19
2023-10-11T00:21:43.755Z,101317.56
2023-10-11T00:24:10.480Z,101312.31
2023-10-11T00:26:41.309Z,101302.47
2023-10-11T00:29:10.412Z,101323.38
2023-10-11T00:31:37.060Z,101314.19
2023-10-11T00:34:05.048Z,101290.81
2023-10-11T00:36:32.158Z,101319.22
2023-10-11T00:38:59.003Z,101316.28
2023-10-11T00:41:32.221Z,101299.16
2023-10-11T00:43:58.922Z,101299.34
2023-10-11T00:46:37.358Z,101310.88
2023-10-11T00:49:13.966Z,101280.28
2023-10-11T00:51:43.704Z,101297.84
2023-10-11T00:54:14.323Z,101298.28
2023-10-11T00:56:44.987Z,101286.56
2023-10-11T00:59:15.964Z,101298.25
2023-10-11T01:01:46.757Z,101302.84
2023-10-11T01:04:17.419Z,101256.78
2023-10-11T01:06:44.721Z,101278.09
2023-10-11T01:09:27.525Z,101291.66
2023-10-11T01:11:54.184Z,101293.56
2023-10-11T01:14:20.784Z,101298.34
2023-10-11T01:16:47.383Z,101290.47
2023-10-11T01:19:17.221Z,101284.41
2023-10-11T01:21:48.582Z,101277.72
2023-10-11T01:24:18.646Z,101285.84
2023-10-11T01:26:45.216Z,101295.03
2023-10-11T01:29:11.869Z,101286.00
2023-10-11T01:31:41.375Z,101284.53
2023-10-11T01:34:08.116Z,101286.38
2023-10-11T01:36:35.711Z,101278.69
2023-10-11T01:39:09.064Z,101280.13
2023-10-11T01:41:37.700Z,101246.22
2023-10-11T01:44:04.547Z,101264.00
2023-10-11T01:46:36.512Z,101271.06
2023-10-11T01:49:06.899Z,101260.03
2023-10-11T01:51:40.478Z,101268.78
2023-10-11T01:54:08.220Z,101255.03
2023-10-11T01:56:34.968Z,101235.56
2023-10-11T01:59:02.569Z,101268.63
2023-10-11T02:01:41.164Z,101260.06
2023-10-11T02:04:18.230Z,101273.22
2023-10-11T02:06:45.141Z,101265.50
2023-10-11T02:09:12.806Z,101261.16
2023-10-11T02:11:42.981Z,101255.72
2023-10-11T02:14:10.828Z,101232.50
2023-10-11T02:16:37.591Z,101243.81
2023-10-11T02:19:06.386Z,101236.47
2023-10-11T02:21:32.900Z,101228.78
2023-10-11T02:24:00.438Z,101239.84
2023-10-11T02:26:35.408Z,101242.75
2023-10-11T02:29:07.773Z,101199.03
2023-10-11T02:31:37.383Z,101228.31
2023-10-11T02:34:15.994Z,101220.78
2023-10-11T02:36:46.645Z,101215.78
2023-10-11T02:39:18.943Z,101191.75
2023-10-11T02:41:58.614Z,101213.72
2023-10-11T02:44:28.266Z,101206.44
2023-10-11T02:46:55.326Z,101206.84
2023-10-11T02:49:22.420Z,101208.75
2023-10-11T02:51:54.265Z,101202.88
2023-10-11T02:54:21.388Z,101205.38
2023-10-11T02:56:48.195Z,101208.13
2023-10-11T02:59:24.034Z,101201.66
2023-10-11T03:02:01.258Z,101196.41
2023-10-11T03:04:42.633Z,101198.06
2023-10-11T03:07:13.230Z,101223.16
2023-10-11T03:09:41.532Z,101221.06
2023-10-11T03:12:29.199Z,101214.78
2023-10-11T03:14:56.124Z,101192.66
2023-10-11T03:17:23.543Z,101210.19
2023-10-11T03:19:50.544Z,101210.41
2023-10-11T03:22:21.218Z,101182.84
2023-10-11T03:25:00.901Z,101187.25
2023-10-11T03:27:38.211Z,101183.72
2023-10-11T03:30:12.716Z,101190.16
2023-10-11T03:32:39.842Z,101164.44
2023-10-11T03:35:06.718Z,101195.38
2023-10-11T03:37:33.189Z,101192.38
2023-10-11T03:39:59.658Z,101186.81
2023-10-11T03:42:54.907Z,101185.97
2023-10-11T03:45:28.859Z,101178.88
2023-10-11T03:47:59.334Z,101173.63
2023-10-11T03:50:33.661Z,101172.34
2023-10-11T03:53:08.461Z,101183.41
2023-10-11T03:55:35.606Z,101174.47
2023-10-11T03:58:02.092Z,101181.59
2023-10-11T04:00:30.469Z,101178.22
2023-10-11T04:02:58.864Z,101180.75
2023-10-11T04:05:35.520Z,101159.44
2023-10-11T04:08:07.269Z,101173.28
2023-10-11T04:10:41.236Z,101159.03
2023-10-11T04:13:15.595Z,101188.72
2023-10-11T04:15:42.941Z,101149.00
2023-10-11T04:18:16.797Z,101147.31
2023-10-11T04:20:52.604Z,101168.69
2023-10-11T04:23:25.576Z,101166.81
2023-10-11T04:25:52.201Z,101139.88
2023-10-11T04:28:18.687Z,101158.69
2023-10-11T04:30:53.027Z,101155.13
2023-10-11T04:33:22.489Z,101131.78
2023-10-11T04:36:03.458Z,101110.25
2023-10-11T04:38:34.096Z,101139.94
2023-10-11T04:41:03.777Z,101144.50
2023-10-11T04:43:38.897Z,101147.38
2023-10-11T04:46:08.676Z,101190.63
2023-10-11T04:48:38.153Z,101198.09
2023-10-11T04:51:09.102Z,101177.19
2023-10-11T04:53:46.326Z,101187.22
2023-10-11T04:56:31.567Z,101197.44
2023-10-11T04:59:07.080Z,101181.75
2023-10-11T05:01:46.809Z,101160.63
2023-10-11T05:04:17.090Z,101170.75
2023-10-11T05:06:45.159Z,101159.00
2023-10-11T05:09:22.934Z,101139.84
2023-10-11T05:11:55.026Z,101165.34
2023-10-11T05:14:30.246Z,101144.38
2023-10-11T05:17:17.641Z,101172.00
2023-10-11T05:20:11.175Z,101165.72
2023-10-11T05:22:40.272Z,101146.03
2023-10-11T05:25:28.195Z,101160.06
2023-10-11T05:28:27.884Z,101153.16
2023-10-11T05:31:13.668Z,101137.06
2023-10-11T05:33:46.422Z,101155.69
2023-10-11T05:36:39.979Z,101174.44
2023-10-11T05:39:25.265Z,101140.19
2023-10-11T05:42:10.188Z,101125.13
2023-10-11T05:44:55.083Z,101138.53
2023-10-11T05:47:40.345Z,101134.78
2023-10-11T05:50:25.715Z,101178.19
2023-10-11T05:52:56.868Z,101179.44
2023-10-11T05:55:24.148Z,101170.44
2023-10-11T05:57:51.799Z,101160.25
2023-10-11T06:00:26.372Z,101147.28
2023-10-11T06:02:54.058Z,101164.00
2023-10-11T06:05:24.784Z,101135.56
2023-10-11T06:08:02.304Z,101175.22
2023-10-11T06:10:33.714Z,101176.06
2023-10-11T06:13:00.200Z,101177.13
2023-10-11T06:15:26.806Z,101169.22
2023-10-11T06:17:56.283Z,101165.66
2023-10-11T06:20:28.814Z,101156.47
2023-10-11T06:22:56.195Z,101159.03
2023-10-11T06:25:41.694Z,101162.63
2023-10-11T06:28:14.396Z,101151.31
2023-10-11T06:30:43.860Z,101149.69
2023-10-11T06:33:14.507Z,101161.16
2023-10-11T06:35:45.685Z,101163.50
2023-10-11T06:38:13.824Z,101147.44
2023-10-11T06:40:41.008Z,101134.09
2023-10-11T06:43:08.858Z,101175.88
2023-10-11T06:45:36.510Z,101165.28
2023-10-11T06:48:10.003Z,101148.81
2023-10-11T06:50:37.529Z,101176.41
2023-10-11T06:53:08.118Z,101179.75
2023-10-11T06:55:49.014Z,101180.78
2023-10-11T06:58:20.545Z,101194.78
2023-10-11T07:00:47.491Z,101181.03
2023-10-11T07:03:28.605Z,101177.91
2023-10-11T07:06:00.654Z,101200.66
2023-10-11T07:08:34.040Z,101186.88
2023-10-11T07:11:04.094Z,101175.19
2023-10-11T07:13:50.487Z,101169.31
2023-10-11T07:16:20.454Z,101143.84
2023-10-11T07:18:47.726Z,101180.19
2023-10-11T07:21:18.410Z,101181.69
2023-10-11T07:23:50.935Z,101150.97
2023-10-11T07:26:30.526Z,101181.69
2023-10-11T07:29:00.221Z,101179.16
2023-10-11T07:31:39.294Z,101186.03
2023-10-11T07:34:08.062Z,101166.44
2023-10-11T07:36:37.963Z,101166.66
2023-10-11T07:39:27.916Z,101181.91
2023-10-11T07:42:22.594Z,101163.09
2023-10-11T07:44:51.421Z,101179.59
2023-10-11T07:47:19.801Z,101171.88
2023-10-11T07:49:46.788Z,101159.75
2023-10-11T07:52:20.445Z,101150.16
2023-10-11T07:54:47.422Z,101164.34
2023-10-11T07:57:16.908Z,101153.69
2023-10-11T07:59:45.516Z,101145.56
2023-10-11T08:02:30.981Z,101158.69
2023-10-11T08:04:58.566Z,101159.75
2023-10-11T08:07:25.285Z,101136.78
2023-10-11T08:09:56.527Z,101164.53
2023-10-11T08:12:25.044Z,101161.63
2023-10-11T08:14:58.067Z,101168.09
2023-10-11T08:17:28.822Z,101140.72
2023-10-11T08:19:55.790Z,101148.28
2023-10-11T08:22:25.814Z,101167.88
2023-10-11T08:24:57.962Z,101168.09
2023-10-11T08:27:31.508Z,101187.31
2023-10-11T08:30:17.858Z,101156.81
2023-10-11T08:32:47.063Z,101182.94
2023-10-11T08:35:18.753Z,101167.69
2023-10-11T08:37:46.364Z,101161.22
2023-10-11T08:40:24.144Z,101150.56
2023-10-11T08:42:52.034Z,101172.06
2023-10-11T08:45:34.346Z,101168.53
2023-10-11T08:48:07.672Z,101175.41
2023-10-11T08:50:35.974Z,101182.28
2023-10-11T08:53:09.727Z,101189.22
2023-10-11T08:55:41.489Z,101194.63
2023-10-11T08:58:24.680Z,101193.81
2023-10-11T09:00:53.253Z,101166.63
2023-10-11T09:03:50.117Z,101193.56
2023-10-11T09:06:24.257Z,101172.06
2023-10-11T09:08:52.956Z,101199.63
2023-10-11T09:11:33.088Z,101198.59
2023-10-11T09:14:25.220Z,101195.25
2023-10-11T09:16:53.291Z,101197.13
2023-10-11T09:19:21.240Z,101210.91
2023-10-11T09:22:07.081Z,101209.47
2023-10-11T09:24:45.805Z,101224.72
2023-10-11T09:27:16.125Z,101210.91
2023-10-11T09:29:49.957Z,101211.53
2023-10-11T09:32:28.864Z,101225.34
2023-10-11T09:34:55.637Z,101225.75
2023-10-11T09:37:22.096Z,101233.69
2023-10-11T09:39:52.277Z,101233.28
2023-10-11T09:42:23.527Z,101246.44
2023-10-11T09:44:59.056Z,101238.72
2023-10-11T09:47:32.363Z,101216.34
2023-10-11T09:50:01.360Z,101234.34
2023-10-11T09:52:30.317Z,101237.69
2023-10-11T09:55:02.835Z,101230.38
2023-10-11T09:57:40.068Z,101257.13
2023-10-11T10:00:15.805Z,101260.47
2023-10-11T10:02:45.919Z,101230.78
2023-10-11T10:05:12.822Z,101253.34
2023-10-11T10:07:42.212Z,101272.38
2023-10-11T10:10:13.565Z,101271.31
2023-10-11T10:12:59.738Z,101266.50
2023-10-11T10:15:38.078Z,101259.19
2023-10-11T10:18:05.121Z,101258.53
2023-10-11T10:20:34.762Z,101257.63
2023-10-11T10:23:16.837Z,101258.66
2023-10-11T10:25:49.901Z,101252.31
2023-10-11T10:28:37.978Z,101252.28
2023-10-11T10:31:07.502Z,101260.84
2023-10-11T10:33:36.555Z,101256.88
2023-10-11T10:36:32.508Z,101258.09
2023-10-11T10:38:59.403Z,101256.44
2023-10-11T10:41:27.366Z,101266.28
2023-10-11T10:44:12.352Z,101246.66
2023-10-11T10:46:51.505Z,101203.69
2023-10-11T10:49:19.600Z,101236.28
2023-10-11T10:51:49.297Z,101252.22
2023-10-11T10:54:19.352Z,101239.63
2023-10-11T10:56:49.551Z,101218.25
2023-10-11T10:59:21.685Z,101201.16
2023-10-11T11:01:49.924Z,101224.97
2023-10-11T11:04:21.744Z,101226.41
2023-10-11T11:06:52.617Z,101196.78
2023-10-11T11:09:20.765Z,101197.69
2023-10-11T11:11:50.118Z,101206.72
2023-10-11T11:14:21.090Z,101215.25
2023-10-11T11:17:01.288Z,101223.41
2023-10-11T11:19:28.118Z,101208.38
2023-10-11T11:22:13.818Z,101203.69
2023-10-11T11:24:42.883Z,101193.66
2023-10-11T11:27:20.000Z,101189.25
2023-10-11T11:29:49.322Z,101166.03
2023-10-11T11:32:18.038Z,101167.84
2023-10-11T11:35:05.770Z,101174.59
2023-10-11T11:37:34.625Z,101198.00
2023-10-11T11:40:20.388Z,101189.03
2023-10-11T11:42:48.934Z,101191.47
2023-10-11T11:45:17.052Z,101189.88
2023-10-11T11:48:00.045Z,101218.22
2023-10-11T11:50:31.573Z,101205.66
2023-10-11T11:52:58.692Z,101215.53
2023-10-11T11:55:25.430Z,101200.97
2023-10-11T11:57:52.186Z,101207.47
2023-10-11T12:00:27.918Z,101200.06
2023-10-11T12:02:56.654Z,101204.31
2023-10-11T12:05:23.485Z,101191.56
2023-10-11T12:07:58.526Z,101179.19
2023-10-11T12:10:25.782Z,101189.13
2023-10-11T12:12:52.984Z,101196.78
2023-10-11T12:15:20.139Z,101167.63
2023-10-11T12:17:50.821Z,101189.69
2023-10-11T12:20:17.294Z,101193.09
2023-10-11T12:22:43.914Z,101189.78
2023-10-11T12:25:11.823Z,101176.28
2023-10-11T12:27:41.919Z,101173.34
2023-10-11T12:30:21.129Z,101177.28
2023-10-11T12:32:48.271Z,101189.22
2023-10-11T12:35:15.102Z,101180.72
2023-10-11T12:37:42.431Z,101177.31
2023-10-11T12:40:15.129Z,101175.91
2023-10-11T12:42:47.820Z,101178.03
2023-10-11T12:45:17.923Z,101164.38
2023-10-11T12:47:45.567Z,101172.44
2023-10-11T12:50:15.113Z,101181.25
2023-10-11T12:52:41.921Z,101143.31
2023-10-11T12:55:09.283Z,101184.72
2023-10-11T12:57:40.143Z,101193.16
2023-10-11T13:00:28.345Z,101163.03
2023-10-11T13:03:00.078Z,101170.44
2023-10-11T13:05:29.137Z,101191.09
2023-10-11T13:07:56.104Z,101183.59
2023-10-11T13:10:25.417Z,101171.09
2023-10-11T13:12:54.362Z,101187.66
2023-10-11T13:15:24.265Z,101172.63
2023-10-11T13:17:50.882Z,101177.31
2023-10-11T13:20:20.299Z,101161.84
2023-10-11T13:22:50.288Z,101132.03
2023-10-11T13:25:33.683Z,101150.75
2023-10-11T13:28:04.309Z,101155.81
2023-10-11T13:30:37.778Z,101133.53
2023-10-11T13:33:10.522Z,101150.59
2023-10-11T13:35:37.485Z,101154.28
2023-10-11T13:38:13.024Z,101149.97
2023-10-11T13:40:40.994Z,101142.16
2023-10-11T13:43:09.484Z,101156.66
2023-10-11T13:45:41.426Z,101153.31
2023-10-11T13:48:15.664Z,101152.59
2023-10-11T13:50:42.944Z,101163.72
2023-10-11T13:53:14.824Z,101143.75
2023-10-11T13:55:41.841Z,101144.34
2023-10-11T13:58:11.054Z,101148.00
2023-10-11T14:00:45.165Z,101142.66
2023-10-11T14:03:18.364Z,101114.13
2023-10-11T14:05:47.547Z,101142.56
2023-10-11T14:08:26.381Z,101137.41
2023-10-11T14:10:53.283Z,101148.75
2023-10-11T14:13:26.923Z,101141.91
2023-10-11T14:15:58.442Z,101136.31
2023-10-11T14:18:28.626Z,101143.44
2023-10-11T14:20:57.835Z,101130.72
2023-10-11T14:23:28.546Z,101101.22
2023-10-11T14:25:59.116Z,101116.00
2023-10-11T14:28:25.733Z,101110.59
2023-10-11T14:30:52.426Z,101088.19
2023-10-11T14:33:20.157Z,101112.81
2023-10-11T14:35:48.185Z,101100.41
2023-10-11T14:48:55.654Z,101111.16
2023-10-11T14:51:22.238Z,101105.75
2023-10-11T14:53:49.932Z,101083.91
2023-10-11T14:56:17.572Z,101077.44
2023-10-11T14:58:45.125Z,101084.47
2023-10-11T15:01:15.412Z,101079.91
2023-10-11T15:03:43.087Z,101053.41
2023-10-11T15:06:11.728Z,101083.53
2023-10-11T15:08:43.809Z,101084.53
2023-10-11T15:11:12.709Z,101081.97
2023-10-11T15:13:42.376Z,101081.22
2023-10-11T15:16:09.404Z,101085.22
2023-10-11T15:18:36.627Z,101069.78
2023-10-11T15:21:05.064Z,101081.41
2023-10-11T15:23:33.280Z,101055.13
2023-10-11T15:26:03.852Z,101094.81
2023-10-11T15:28:31.869Z,101072.56
2023-10-11T15:31:04.033Z,101061.50
2023-10-11T15:33:30.606Z,101056.38
2023-10-11T15:35:58.024Z,101036.44
2023-10-11T15:38:28.717Z,101048.16
2023-10-11T15:41:05.254Z,101016.13
2023-10-11T15:46:23.997Z,101060.19
2023-10-11T15:51:31.930Z,101128.91
2023-10-11T15:53:59.429Z,101124.66
2023-10-11T15:56:26.712Z,101140.25
2023-10-11T15:58:55.974Z,101083.16
2023-10-11T16:01:25.607Z,101097.72
2023-10-11T16:06:27.983Z,101093.88
2023-10-11T16:11:31.691Z,101065.00
2023-10-11T16:13:58.894Z,101028.38
2023-10-11T16:16:25.369Z,101039.59
2023-10-11T16:18:53.045Z,101073.50
2023-10-11T16:21:21.924Z,101089.22
2023-10-11T16:23:52.853Z,101073.19
2023-10-11T16:26:20.460Z,101087.00
2023-10-11T16:28:47.678Z,101111.66
2023-10-11T16:31:18.138Z,101125.06
2023-10-11T16:33:45.728Z,101119.59
2023-10-11T16:36:12.520Z,101124.59
2023-10-11T16:38:39.243Z,101126.28
2023-10-11T16:41:09.755Z,101120.00
2023-10-11T16:43:43.887Z,101123.78
2023-10-11T16:48:41.664Z,101117.16
2023-10-11T16:51:12.548Z,101115.09
2023-10-11T16:53:39.691Z,101107.97
2023-10-11T16:56:16.341Z,101112.38
2023-10-11T16:58:45.026Z,101094.03
2023-10-11T17:01:12.657Z,101107.97
2023-10-11T17:03:40.921Z,101090.44
2023-10-11T17:06:08.980Z,101087.13
2023-10-11T17:08:39.544Z,101098.22
2023-10-11T17:11:14.600Z,101084.69
2023-10-11T17:13:41.771Z,101104.75
2023-10-11T17:16:08.469Z,101122.28
2023-10-11T17:18:36.133Z,101107.69
2023-10-11T17:21:04.671Z,101100.16
2023-10-11T17:23:33.737Z,101099.75
2023-10-11T17:26:13.793Z,101074.25
2023-10-11T17:28:42.292Z,101110.94
2023-10-11T17:31:10.605Z,101075.66
2023-10-11T17:33:37.234Z,101058.34
2023-10-11T17:36:09.569Z,101069.41
2023-10-11T17:38:42.169Z,101069.19
2023-10-11T17:41:11.847Z,101078.84
2023-10-11T17:43:39.097Z,101081.34
2023-10-11T17:46:07.842Z,101099.03
2023-10-11T17:48:35.149Z,101103.28
2023-10-11T17:51:01.766Z,101111.69
2023-10-11T17:53:28.272Z,101104.56
2023-10-11T17:55:54.724Z,101087.78
2023-10-11T17:58:21.174Z,101085.44
2023-10-11T18:00:48.976Z,101070.59
2023-10-11T18:03:18.082Z,101059.97
2023-10-11T18:05:45.844Z,101055.31
2023-10-11T18:08:12.642Z,101067.59
2023-10-11T18:10:39.138Z,101059.25
2023-10-11T18:13:05.629Z,101052.97
2023-10-11T18:15:33.764Z,101055.69
2023-10-11T18:18:06.267Z,101032.81
2023-10-11T18:20:33.324Z,101071.19
2023-10-11T18:23:00.344Z,101050.41
2023-10-11T18:25:28.871Z,101069.16
2023-10-11T18:27:57.493Z,101072.47
2023-10-11T18:30:26.053Z,101080.66
2023-10-11T18:32:53.110Z,101089.88
2023-10-11T18:35:21.892Z,101097.16
2023-10-11T18:37:48.394Z,101100.50
2023-10-11T18:40:19.782Z,101110.75
2023-10-11T18:42:51.402Z,101086.63
2023-10-11T18:45:19.213Z,101069.94
2023-10-11T18:47:46.641Z,101086.41
2023-10-11T18:50:13.390Z,101096.69
2023-10-11T18:52:42.608Z,101100.47
2023-10-11T18:55:09.755Z,101050.22
2023-10-11T18:57:40.387Z,101086.97
2023-10-11T19:00:15.221Z,101086.19
2023-10-11T19:02:43.821Z,101088.44
2023-10-11T19:05:11.293Z,101097.03
2023-10-11T19:07:39.751Z,101100.34
2023-10-11T19:10:07.727Z,101095.34
2023-10-11T19:12:38.087Z,101104.34
2023-10-11T19:15:06.354Z,101099.53
2023-10-11T19:17:44.351Z,101097.06
2023-10-11T19:20:14.988Z,101103.34
2023-10-11T19:22:44.336Z,101097.09
2023-10-11T19:25:13.063Z,101081.44
2023-10-11T19:27:39.846Z,101081.63
2023-10-11T19:30:07.502Z,101070.78
2023-10-11T19:32:38.252Z,101049.47
2023-10-11T19:35:08.585Z,101031.94
2023-10-11T19:37:36.723Z,101028.81
2023-10-11T19:40:10.367Z,101004.41
2023-10-11T19:42:37.752Z,101021.06
2023-10-11T19:45:17.210Z,101030.88
2023-10-11T19:47:44.768Z,101041.94
2023-10-11T19:50:14.362Z,101021.09
2023-10-11T19:52:44.507Z,101052.59
2023-10-11T19:55:16.370Z,101049.22
2023-10-11T19:57:43.213Z,101051.13
2023-10-11T20:00:11.510Z,101053.63
2023-10-11T20:02:38.317Z,101060.09
2023-10-11T20:05:05.143Z,101030.84
2023-10-11T20:07:32.958Z,101053.16
2023-10-11T20:10:00.264Z,101048.78
2023-10-11T20:12:26.984Z,101053.81
2023-10-11T20:14:54.741Z,101054.19
2023-10-11T20:17:21.269Z,101044.81
2023-10-11T20:19:47.727Z,101040.03
2023-10-11T20:22:14.216Z,101045.22
2023-10-11T20:24:41.154Z,101040.63
2023-10-11T20:27:08.449Z,101000.56
2023-10-11T20:29:37.573Z,101032.06
2023-10-11T20:32:04.776Z,101028.50
2023-10-11T20:34:32.407Z,101021.38
2023-10-11T20:37:00.853Z,101025.09
2023-10-11T20:39:30.981Z,101023.06
2023-10-11T20:41:58.267Z,101008.81
2023-10-11T20:44:26.592Z,101019.88
2023-10-11T20:46:53.762Z,100990.03
2023-10-11T20:49:20.758Z,101019.28
2023-10-11T20:51:47.445Z,101020.31
2023-10-11T20:54:15.256Z,101012.59
2023-10-11T20:56:43.710Z,101009.91
2023-10-11T20:59:16.398Z,101030.97
2023-10-11T21:01:45.488Z,101041.22
2023-10-11T21:04:13.493Z,101046.66
2023-10-11T21:06:40.595Z,101021.41
2023-10-11T21:09:07.271Z,101031.19
2023-10-11T21:11:34.066Z,101056.03
2023-10-11T21:14:07.063Z,101058.75
2023-10-11T21:16:34.970Z,101050.19
2023-10-11T21:19:01.784Z,101054.81
2023-10-11T21:21:29.448Z,101055.63
2023-10-11T21:23:55.980Z,101064.00
2023-10-11T21:26:22.803Z,101071.50
2023-10-11T21:28:55.089Z,101080.50
2023-10-11T21:31:22.127Z,101063.34
2023-10-11T21:33:48.811Z,101055.22
2023-10-11T21:36:17.387Z,101048.16
2023-10-11T21:38:45.902Z,101076.09
2023-10-11T21:41:15.606Z,101078.41
2023-10-11T21:43:42.487Z,101066.47
2023-10-11T21:46:13.570Z,101043.13
2023-10-11T21:48:41.338Z,101087.81
2023-10-11T21:51:14.780Z,101104.78
2023-10-11T21:53:42.725Z,101103.38
2023-10-11T21:56:10.282Z,101108.59
2023-10-11T21:58:39.078Z,101083.31
2023-10-11T22:01:06.119Z,101123.81
2023-10-11T22:03:32.957Z,101124.59
2023-10-11T22:06:05.894Z,101129.59
2023-10-11T22:08:36.286Z,101142.69
2023-10-11T22:11:05.230Z,101122.63
2023-10-11T22:13:33.548Z,101133.31
2023-10-11T22:16:00.676Z,101096.53
2023-10-11T22:18:30.646Z,101107.44
2023-10-11T22:21:00.744Z,101107.22
2023-10-11T22:23:32.248Z,101104.25
2023-10-11T22:25:59.079Z,101100.94
2023-10-11T22:28:26.070Z,101083.97
2023-10-11T22:30:52.735Z,101110.69
2023-10-11T22:33:23.504Z,101106.94
2023-10-11T22:35:52.289Z,101106.06
2023-10-11T22:38:20.744Z,101105.16
2023-10-11T22:40:51.057Z,101097.41
2023-10-11T22:43:29.558Z,101113.78
2023-10-11T22:45:58.455Z,101137.44
2023-10-11T22:48:25.760Z,101141.91
2023-10-11T22:50:53.106Z,101143.94
2023-10-11T22:53:24.219Z,101140.09
2023-10-11T22:55:51.467Z,101146.00
2023-10-11T22:58:19.838Z,101160.72
2023-10-11T23:00:47.018Z,101114.50
2023-10-11T23:03:13.669Z,101145.66
2023-10-11T23:05:41.792Z,101157.06
2023-10-11T23:08:08.312Z,101162.53
2023-10-11T23:10:45.710Z,101177.47
2023-10-11T23:13:12.694Z,101149.91
2023-10-11T23:15:53.436Z,101187.97
2023-10-11T23:18:26.775Z,101192.53
2023-10-11T23:21:01.871Z,101183.25
2023-10-11T23:23:42.355Z,101153.84
2023-10-11T23:26:13.517Z,101198.28
2023-10-11T23:28:40.937Z,101201.59
2023-10-11T23:31:09.513Z,101192.13
2023-10-11T23:33:50.826Z,101205.56
2023-10-11T23:36:25.976Z,101202.50
2023-10-11T23:39:02.159Z,101192.81
2023-10-11T23:41:47.613Z,101162.28
2023-10-11T23:44:22.242Z,101207.63
2023-10-11T23:46:57.959Z,101178.88
2023-10-11T23:52:06.133Z,101210.16
2023-10-11T23:54:42.062Z,101214.44
2023-10-11T23:57:30.054Z,101228.22
